createdAt,value
2022-12-23T00:01:09.512Z,86.88
2022-12-23T00:06:50.892Z,86.23
2022-12-23T00:09:36.442Z,86.82
2022-12-23T00:12:41.025Z,86.83
2022-12-23T00:15:26.718Z,85.99
2022-12-23T00:18:12.225Z,85.84
2022-12-23T00:21:09.064Z,86.46
2022-12-23T00:23:54.738Z,86.41
2022-12-23T00:26:40.132Z,86.51
2022-12-23T00:29:25.495Z,86.62
2022-12-23T00:32:10.995Z,86.95
2022-12-23T00:34:56.298Z,86.91
2022-12-23T00:37:41.927Z,87.37
2022-12-23T00:40:46.261Z,88.16
2022-12-23T00:43:31.904Z,87.67
2022-12-23T00:46:17.631Z,87.44
2022-12-23T00:49:22.155Z,87.82
2022-12-23T00:52:11.781Z,87.84
2022-12-23T00:54:57.189Z,87.87
2022-12-23T00:57:42.696Z,88.10
2022-12-23T01:00:46.516Z,87.51
2022-12-23T01:03:50.931Z,88.45
2022-12-23T01:06:36.376Z,88.87
2022-12-23T01:09:21.807Z,88.87
2022-12-23T01:12:07.478Z,89.36
2022-12-23T01:14:53.395Z,89.18
2022-12-23T01:17:39.162Z,88.53
2022-12-23T01:20:25.289Z,88.61
2022-12-23T01:23:10.976Z,89.00
2022-12-23T01:25:58.629Z,89.21
2022-12-23T01:28:44.381Z,88.83
2022-12-23T01:31:30.438Z,88.71
2022-12-23T01:34:16.426Z,88.04
2022-12-23T01:37:02.306Z,87.23
2022-12-23T01:39:47.782Z,87.84
2022-12-23T01:42:45.278Z,88.28
2022-12-23T01:45:33.441Z,88.06
2022-12-23T01:48:26.805Z,87.86
2022-12-23T01:51:23.620Z,87.25
2022-12-23T01:54:09.178Z,87.31
2022-12-23T01:56:54.669Z,87.24
2022-12-23T02:00:00.166Z,86.53
2022-12-23T02:03:05.345Z,86.82
2022-12-23T02:05:52.669Z,86.67
2022-12-23T02:08:58.178Z,86.84
2022-12-23T02:12:12.407Z,86.19
2022-12-23T02:15:50.898Z,86.12
2022-12-23T02:18:53.268Z,86.23
2022-12-23T02:22:53.035Z,86.88
2022-12-23T02:25:49.752Z,87.52
2022-12-23T02:28:58.775Z,87.89
2022-12-23T02:32:24.559Z,88.37
2022-12-23T02:35:46.810Z,88.03
2022-12-23T02:38:48.181Z,87.69
2022-12-23T02:42:07.468Z,88.80
2022-12-23T02:45:00.361Z,88.39
2022-12-23T02:47:56.464Z,88.58
2022-12-23T02:50:45.556Z,88.98
2022-12-23T02:53:42.442Z,88.95
2022-12-23T02:56:43.241Z,89.24
2022-12-23T02:59:36.775Z,90.30
2022-12-23T03:02:22.585Z,91.22
2022-12-23T03:05:46.549Z,90.37
2022-12-23T03:08:42.787Z,90.71
2022-12-23T03:12:09.583Z,90.78
2022-12-23T03:15:48.852Z,89.86
2022-12-23T03:19:05.203Z,88.94
2022-12-23T03:22:08.331Z,88.50
2022-12-23T03:25:20.667Z,88.19
2022-12-23T03:28:21.058Z,87.68
2022-12-23T03:31:12.806Z,87.66
2022-12-23T03:34:08.199Z,86.65
2022-12-23T03:36:58.662Z,87.51
2022-12-23T03:39:55.128Z,87.56
2022-12-23T03:42:44.584Z,87.97
2022-12-23T03:45:40.283Z,87.68
2022-12-23T03:48:50.395Z,87.97
2022-12-23T03:51:56.266Z,88.11
2022-12-23T03:54:53.181Z,87.68
2022-12-23T03:57:45.345Z,89.26
2022-12-23T04:00:40.829Z,87.82
2022-12-23T04:03:53.429Z,88.78
2022-12-23T04:07:07.420Z,87.79
2022-12-23T04:09:54.273Z,87.84
2022-12-23T04:12:40.416Z,87.58
2022-12-23T04:15:27.879Z,87.58
2022-12-23T04:18:13.777Z,87.38
2022-12-23T04:20:59.455Z,86.85
2022-12-23T04:23:44.769Z,86.68
2022-12-23T04:26:30.033Z,88.19
2022-12-23T04:29:16.180Z,88.43
2022-12-23T04:32:01.665Z,87.82
2022-12-23T04:34:47.088Z,88.37
2022-12-23T04:37:33.276Z,88.58
2022-12-23T04:40:18.948Z,88.15
2022-12-23T04:43:04.845Z,88.07
2022-12-23T04:45:51.968Z,88.09
2022-12-23T04:48:37.758Z,87.48
2022-12-23T04:51:23.731Z,86.95
2022-12-23T04:54:09.131Z,86.75
2022-12-23T04:56:54.518Z,88.80
2022-12-23T04:59:39.908Z,88.15
2022-12-23T05:02:27.012Z,88.04
2022-12-23T05:05:12.987Z,88.04
2022-12-23T05:08:05.563Z,88.21
2022-12-23T05:10:51.445Z,88.16
2022-12-23T05:13:36.926Z,88.39
2022-12-23T05:16:22.432Z,89.21
2022-12-23T05:19:10.022Z,90.04
2022-12-23T05:21:55.704Z,87.93
2022-12-23T05:24:41.171Z,88.01
2022-12-23T05:27:26.462Z,88.12
2022-12-23T05:30:12.331Z,88.55
2022-12-23T05:32:58.624Z,89.99
2022-12-23T05:35:44.526Z,88.76
2022-12-23T05:38:30.386Z,90.12
2022-12-23T05:41:16.833Z,90.13
2022-12-23T05:44:02.657Z,89.30
2022-12-23T05:46:47.987Z,89.70
2022-12-23T05:49:33.276Z,89.66
2022-12-23T05:52:18.815Z,89.41
2022-12-23T05:55:05.341Z,90.81
2022-12-23T05:57:52.341Z,90.25
2022-12-23T06:00:38.438Z,90.36
2022-12-23T06:03:24.694Z,91.02
2022-12-23T06:06:10.392Z,90.30
2022-12-23T06:08:59.872Z,91.00
2022-12-23T06:11:46.327Z,91.72
2022-12-23T06:14:31.728Z,91.47
2022-12-23T06:17:17.559Z,90.47
2022-12-23T06:20:04.019Z,90.22
2022-12-23T06:22:49.846Z,90.01
2022-12-23T06:25:35.288Z,89.56
2022-12-23T06:28:20.866Z,88.27
2022-12-23T06:31:06.185Z,88.16
2022-12-23T06:33:52.317Z,89.00
2022-12-23T06:36:37.654Z,89.46
2022-12-23T06:39:23.318Z,88.98
2022-12-23T06:42:09.262Z,88.77
2022-12-23T06:44:54.986Z,88.96
2022-12-23T06:47:40.650Z,89.58
2022-12-23T06:50:26.481Z,90.33
2022-12-23T06:53:12.777Z,90.64
2022-12-23T06:56:03.454Z,91.01
2022-12-23T06:58:49.174Z,91.51
2022-12-23T07:01:34.809Z,90.16
2022-12-23T07:04:20.626Z,89.62
2022-12-23T07:07:05.915Z,89.05
2022-12-23T07:09:51.181Z,90.02
2022-12-23T07:12:36.511Z,89.00
2022-12-23T07:15:21.955Z,88.45
2022-12-23T07:18:07.867Z,90.79
2022-12-23T07:20:53.303Z,89.44
2022-12-23T07:23:38.824Z,88.04
2022-12-23T07:26:24.119Z,87.66
2022-12-23T07:29:09.418Z,87.22
2022-12-23T07:31:55.086Z,86.04
2022-12-23T07:34:40.896Z,86.95
2022-12-23T07:37:26.577Z,85.98
2022-12-23T07:40:12.608Z,85.74
2022-12-23T07:42:59.445Z,86.34
2022-12-23T07:45:45.074Z,85.27
2022-12-23T07:48:30.839Z,86.42
2022-12-23T07:51:16.462Z,86.00
2022-12-23T07:54:01.743Z,87.12
2022-12-23T07:56:47.226Z,86.28
2022-12-23T07:59:32.832Z,86.30
2022-12-23T08:02:18.332Z,85.43
2022-12-23T08:05:04.771Z,85.37
2022-12-23T08:07:52.124Z,85.63
2022-12-23T08:10:41.456Z,85.62
2022-12-23T08:13:31.449Z,84.56
2022-12-23T08:16:16.830Z,84.80
2022-12-23T08:19:02.810Z,84.90
2022-12-23T08:21:48.517Z,86.75
2022-12-23T08:24:33.917Z,86.97
2022-12-23T08:27:19.731Z,87.08
2022-12-23T08:30:06.854Z,87.86
2022-12-23T08:32:52.398Z,86.40
2022-12-23T08:35:37.689Z,86.35
2022-12-23T08:38:23.276Z,90.69
2022-12-23T08:41:15.853Z,100.00
2022-12-23T08:44:01.168Z,100.00
2022-12-23T08:46:46.970Z,100.00
2022-12-23T08:49:32.554Z,100.00
2022-12-23T08:52:17.979Z,100.00
2022-12-23T08:55:03.601Z,100.00
2022-12-23T08:57:48.952Z,100.00
2022-12-23T09:00:35.564Z,100.00
2022-12-23T09:03:21.500Z,100.00
2022-12-23T09:06:13.827Z,100.00
2022-12-23T09:08:59.983Z,100.00
2022-12-23T09:11:45.915Z,100.00
2022-12-23T09:14:31.643Z,100.00
2022-12-23T09:17:17.811Z,100.00
2022-12-23T09:20:04.723Z,100.00
2022-12-23T09:22:50.554Z,100.00
2022-12-23T09:25:37.245Z,100.00
2022-12-23T09:28:24.247Z,100.00
2022-12-23T09:31:12.379Z,100.00
2022-12-23T09:33:58.077Z,100.00
2022-12-23T09:36:43.511Z,100.00
2022-12-23T09:39:28.872Z,100.00
2022-12-23T09:43:00.956Z,100.00
2022-12-23T09:46:24.047Z,100.00
2022-12-23T09:49:15.400Z,100.00
2022-12-23T09:52:06.595Z,100.00
2022-12-23T09:54:55.402Z,100.00
2022-12-23T09:58:01.109Z,100.00
2022-12-23T10:01:08.649Z,100.00
2022-12-23T10:04:56.412Z,100.00
2022-12-23T10:08:00.218Z,100.00
2022-12-23T10:10:55.322Z,100.00
2022-12-23T10:14:14.927Z,100.00
2022-12-23T10:17:17.902Z,100.00
2022-12-23T10:20:07.037Z,100.00
2022-12-23T10:22:55.155Z,100.00
2022-12-23T10:25:51.624Z,100.00
2022-12-23T10:28:37.599Z,100.00
2022-12-23T10:32:21.681Z,100.00
2022-12-23T10:35:30.075Z,100.00
2022-12-23T10:38:45.443Z,100.00
2022-12-23T10:42:19.588Z,100.00
2022-12-23T10:45:07.583Z,100.00
2022-12-23T10:48:12.030Z,100.00
2022-12-23T10:51:29.895Z,100.00
2022-12-23T10:54:23.991Z,100.00
2022-12-23T10:57:10.423Z,100.00
2022-12-23T10:59:56.843Z,100.00
2022-12-23T11:03:36.505Z,100.00
2022-12-23T11:06:23.223Z,100.00
2022-12-23T11:09:21.958Z,100.00
2022-12-23T11:12:11.005Z,100.00
2022-12-23T11:14:57.951Z,100.00
2022-12-23T11:17:57.140Z,100.00
2022-12-23T11:20:46.020Z,100.00
2022-12-23T11:23:36.611Z,100.00
2022-12-23T11:26:22.432Z,100.00
2022-12-23T11:29:16.079Z,100.00
2022-12-23T11:32:15.161Z,100.00
2022-12-23T11:35:01.005Z,100.00
2022-12-23T11:37:46.892Z,100.00
2022-12-23T11:40:38.729Z,100.00
2022-12-23T11:43:26.542Z,100.00
2022-12-23T11:46:33.165Z,100.00
2022-12-23T11:49:18.897Z,100.00
2022-12-23T11:52:16.956Z,100.00
2022-12-23T11:55:05.852Z,100.00
2022-12-23T11:57:52.564Z,100.00
2022-12-23T12:00:55.292Z,100.00
2022-12-23T12:03:54.758Z,100.00
2022-12-23T12:06:49.761Z,100.00
2022-12-23T12:09:42.106Z,100.00
2022-12-23T12:12:29.346Z,100.00
2022-12-23T12:15:44.161Z,100.00
2022-12-23T12:18:29.999Z,100.00
2022-12-23T12:21:23.824Z,100.00
2022-12-23T12:24:19.854Z,100.00
2022-12-23T12:27:08.121Z,100.00
2022-12-23T12:30:04.576Z,100.00
2022-12-23T12:33:23.440Z,100.00
2022-12-23T12:36:47.886Z,100.00
2022-12-23T12:39:43.993Z,100.00
2022-12-23T12:42:47.333Z,100.00
2022-12-23T12:45:46.000Z,100.00
2022-12-23T12:48:42.112Z,100.00
2022-12-23T12:51:52.895Z,100.00
2022-12-23T12:55:01.958Z,100.00
2022-12-23T12:57:47.372Z,100.00
2022-12-23T13:00:53.345Z,100.00
2022-12-23T13:04:01.220Z,100.00
2022-12-23T13:07:07.875Z,100.00
2022-12-23T13:10:11.426Z,100.00
2022-12-23T13:13:53.586Z,100.00
2022-12-23T13:16:49.303Z,100.00
2022-12-23T13:20:15.451Z,100.00
2022-12-23T13:23:45.795Z,100.00
2022-12-23T13:26:43.982Z,100.00
2022-12-23T13:29:38.046Z,100.00
2022-12-23T13:32:51.167Z,100.00
2022-12-23T13:36:06.194Z,100.00
2022-12-23T13:39:23.209Z,100.00
2022-12-23T13:42:19.970Z,100.00
2022-12-23T13:45:13.355Z,100.00
2022-12-23T13:48:22.867Z,100.00
2022-12-23T13:51:16.991Z,100.00
2022-12-23T13:54:13.975Z,100.00
2022-12-23T13:57:25.202Z,100.00
2022-12-23T14:00:16.659Z,100.00
2022-12-23T14:03:02.699Z,100.00
2022-12-23T14:05:50.833Z,100.00
2022-12-23T14:08:42.402Z,100.00
2022-12-23T14:11:32.109Z,100.00
2022-12-23T14:14:24.803Z,100.00
2022-12-23T14:17:27.417Z,100.00
2022-12-23T14:20:37.619Z,100.00
2022-12-23T14:24:11.025Z,100.00
2022-12-23T14:27:27.270Z,100.00
2022-12-23T14:30:30.784Z,100.00
2022-12-23T14:33:32.692Z,100.00
2022-12-23T14:36:26.826Z,100.00
2022-12-23T14:39:12.178Z,100.00
2022-12-23T14:42:05.146Z,100.00
2022-12-23T14:44:52.617Z,100.00
2022-12-23T14:47:40.469Z,100.00
2022-12-23T14:50:42.650Z,100.00
2022-12-23T14:53:32.275Z,100.00
2022-12-23T14:56:39.773Z,100.00
2022-12-23T14:59:46.919Z,100.00
2022-12-23T15:02:41.343Z,100.00
2022-12-23T15:05:27.535Z,100.00
2022-12-23T15:08:41.900Z,100.00
2022-12-23T15:11:32.037Z,100.00
2022-12-23T15:14:52.475Z,100.00
2022-12-23T15:17:38.447Z,100.00
2022-12-23T15:20:25.579Z,100.00
2022-12-23T15:23:16.832Z,100.00
2022-12-23T15:26:02.744Z,100.00
2022-12-23T15:28:48.512Z,100.00
2022-12-23T15:31:42.292Z,100.00
2022-12-23T15:34:33.123Z,100.00
2022-12-23T15:37:29.736Z,100.00
2022-12-23T15:40:38.576Z,100.00
2022-12-23T15:43:24.398Z,100.00
2022-12-23T15:46:29.327Z,100.00
2022-12-23T15:49:16.652Z,100.00
2022-12-23T15:52:09.741Z,100.00
2022-12-23T15:55:12.012Z,100.00
2022-12-23T15:57:59.214Z,100.00
2022-12-23T16:01:15.448Z,100.00
2022-12-23T16:04:01.633Z,100.00
2022-12-23T16:06:51.635Z,100.00
2022-12-23T16:09:37.134Z,100.00
2022-12-23T16:12:26.219Z,100.00
2022-12-23T16:15:30.941Z,100.00
2022-12-23T16:18:19.312Z,100.00
2022-12-23T16:21:11.793Z,100.00
2022-12-23T16:24:00.634Z,100.00
2022-12-23T16:26:46.517Z,100.00
2022-12-23T16:29:33.514Z,100.00
2022-12-23T16:32:20.285Z,100.00
2022-12-23T16:35:33.200Z,100.00
2022-12-23T16:38:21.357Z,100.00
2022-12-23T16:41:07.062Z,100.00
2022-12-23T16:43:53.850Z,100.00
2022-12-23T16:46:46.498Z,100.00
2022-12-23T16:49:35.569Z,100.00
2022-12-23T16:52:21.709Z,100.00
2022-12-23T16:55:18.168Z,100.00
2022-12-23T16:58:03.808Z,100.00
2022-12-23T17:00:49.533Z,100.00
2022-12-23T17:03:35.066Z,100.00
2022-12-23T17:06:21.471Z,100.00
2022-12-23T17:09:10.163Z,100.00
2022-12-23T17:11:56.468Z,100.00
2022-12-23T17:14:42.243Z,100.00
2022-12-23T17:17:28.709Z,100.00
2022-12-23T17:20:14.815Z,100.00
2022-12-23T17:23:00.923Z,100.00
2022-12-23T17:25:46.313Z,100.00
2022-12-23T17:28:32.883Z,100.00
2022-12-23T17:31:26.753Z,100.00
2022-12-23T17:34:22.694Z,100.00
2022-12-23T17:37:28.253Z,100.00
2022-12-23T17:40:15.251Z,100.00
2022-12-23T17:43:00.676Z,100.00
2022-12-23T17:45:47.310Z,100.00
2022-12-23T17:48:33.891Z,100.00
2022-12-23T17:51:22.256Z,100.00
2022-12-23T17:54:24.881Z,100.00
2022-12-23T17:57:22.705Z,100.00
2022-12-23T18:00:10.541Z,100.00
2022-12-23T18:02:57.815Z,100.00
2022-12-23T18:05:43.414Z,100.00
2022-12-23T18:08:29.140Z,100.00
2022-12-23T18:11:35.769Z,100.00
2022-12-23T18:14:28.187Z,100.00
2022-12-23T18:17:17.852Z,100.00
2022-12-23T18:20:04.914Z,100.00
2022-12-23T18:22:54.056Z,100.00
2022-12-23T18:25:43.246Z,100.00
2022-12-23T18:28:28.792Z,100.00
2022-12-23T18:31:21.176Z,100.00
2022-12-23T18:34:06.695Z,100.00
2022-12-23T18:36:52.460Z,100.00
2022-12-23T18:39:38.510Z,100.00
2022-12-23T18:42:23.775Z,100.00
2022-12-23T18:45:36.971Z,100.00
2022-12-23T18:48:22.454Z,100.00
2022-12-23T18:51:20.821Z,100.00
2022-12-23T18:54:06.835Z,100.00
2022-12-23T18:56:52.711Z,100.00
2022-12-23T18:59:39.862Z,100.00
2022-12-23T19:02:25.734Z,100.00
2022-12-23T19:05:27.989Z,100.00
2022-12-23T19:08:13.552Z,100.00
2022-12-23T19:11:00.281Z,100.00
2022-12-23T19:13:46.653Z,100.00
2022-12-23T19:16:32.344Z,100.00
2022-12-23T19:19:18.517Z,100.00
2022-12-23T19:22:04.277Z,100.00
2022-12-23T19:25:04.417Z,100.00
2022-12-23T19:27:51.863Z,100.00
2022-12-23T19:30:40.445Z,100.00
2022-12-23T19:33:26.022Z,100.00
2022-12-23T19:36:15.004Z,100.00
2022-12-23T19:39:00.846Z,100.00
2022-12-23T19:41:46.378Z,100.00
2022-12-23T19:44:35.729Z,100.00
2022-12-23T19:47:21.516Z,100.00
2022-12-23T19:50:08.186Z,100.00
2022-12-23T19:52:54.836Z,100.00
2022-12-23T19:55:40.721Z,100.00
2022-12-23T19:58:26.521Z,100.00
2022-12-23T20:01:22.665Z,100.00
2022-12-23T20:04:09.934Z,100.00
2022-12-23T20:06:55.343Z,100.00
2022-12-23T20:09:41.104Z,100.00
2022-12-23T20:12:28.082Z,100.00
2022-12-23T20:15:13.969Z,100.00
2022-12-23T20:17:59.792Z,100.00
2022-12-23T20:20:45.468Z,100.00
2022-12-23T20:23:31.536Z,100.00
2022-12-23T20:26:18.748Z,100.00
2022-12-23T20:29:04.707Z,100.00
2022-12-23T20:31:50.660Z,100.00
2022-12-23T20:34:39.606Z,100.00
2022-12-23T20:37:25.737Z,100.00
2022-12-23T20:40:12.886Z,100.00
2022-12-23T20:43:01.347Z,100.00
2022-12-23T20:45:46.766Z,100.00
2022-12-23T20:48:34.223Z,100.00
2022-12-23T20:51:25.468Z,100.00
2022-12-23T20:54:10.883Z,100.00
2022-12-23T20:56:56.379Z,100.00
2022-12-23T20:59:41.814Z,100.00
2022-12-23T21:02:27.234Z,100.00
2022-12-23T21:05:13.057Z,100.00
2022-12-23T21:07:58.472Z,100.00
2022-12-23T21:10:43.947Z,100.00
2022-12-23T21:13:29.364Z,100.00
2022-12-23T21:16:15.691Z,100.00
2022-12-23T21:19:01.576Z,100.00
2022-12-23T21:21:48.531Z,100.00
2022-12-23T21:24:34.222Z,100.00
2022-12-23T21:27:21.336Z,100.00
2022-12-23T21:30:08.141Z,100.00
2022-12-23T21:32:56.794Z,100.00
2022-12-23T21:35:42.559Z,100.00
2022-12-23T21:38:33.575Z,100.00
2022-12-23T21:41:27.491Z,100.00
2022-12-23T21:44:16.369Z,100.00
2022-12-23T21:47:02.152Z,100.00
2022-12-23T21:49:47.994Z,100.00
